createdAt,value
2019-05-06T00:01:34.079Z,5.25
2019-05-06T00:04:04.877Z,4.65
2019-05-06T00:06:34.646Z,5.53
2019-05-06T00:09:05.446Z,5.20
2019-05-06T00:11:34.689Z,4.85
2019-05-06T00:14:04.543Z,5.53
2019-05-06T00:16:34.742Z,5.03
2019-05-06T00:19:04.983Z,5.00
2019-05-06T00:21:35.586Z,5.92
2019-05-06T00:24:04.786Z,5.75
2019-05-06T00:26:44.814Z,5.37
2019-05-06T00:29:15.330Z,5.80
2019-05-06T00:31:44.068Z,5.25
2019-05-06T00:34:13.853Z,5.10
2019-05-06T00:36:43.642Z,4.67
2019-05-06T00:39:16.820Z,5.55
2019-05-06T00:41:46.829Z,5.10
2019-05-06T00:44:15.267Z,4.97
2019-05-06T00:46:43.794Z,5.33
2019-05-06T00:49:14.361Z,5.40
2019-05-06T00:51:43.988Z,4.95
2019-05-06T00:54:16.882Z,5.67
2019-05-06T00:56:45.247Z,5.45
2019-05-06T00:59:14.339Z,5.08
2019-05-06T01:01:44.525Z,4.95
2019-05-06T01:04:13.932Z,4.50
2019-05-06T01:06:44.236Z,4.70
2019-05-06T01:09:14.931Z,5.05
2019-05-06T01:11:44.993Z,4.27
2019-05-06T01:14:17.763Z,4.60
2019-05-06T01:16:46.126Z,5.70
2019-05-06T01:19:14.591Z,4.72
2019-05-06T01:21:44.692Z,4.85
2019-05-06T01:24:14.700Z,4.50
2019-05-06T01:26:44.371Z,5.20
2019-05-06T01:29:14.601Z,4.80
2019-05-06T01:31:46.192Z,4.42
2019-05-06T01:34:15.019Z,5.10
2019-05-06T01:36:43.809Z,4.35
2019-05-06T01:39:20.079Z,5.13
2019-05-06T01:41:50.097Z,4.77
2019-05-06T01:44:18.968Z,4.00
2019-05-06T01:46:47.363Z,4.97
2019-05-06T01:49:15.826Z,5.22
2019-05-06T01:51:44.214Z,5.08
2019-05-06T01:54:14.198Z,4.95
2019-05-06T01:56:44.416Z,5.65
2019-05-06T01:59:13.984Z,5.25
2019-05-06T02:01:56.470Z,5.25
2019-05-06T02:04:13.803Z,5.95
2019-05-06T02:06:43.969Z,5.55
2019-05-06T02:09:15.356Z,4.90
2019-05-06T02:11:45.166Z,4.95
2019-05-06T02:14:14.110Z,5.43
2019-05-06T02:16:43.676Z,5.72
2019-05-06T02:19:12.139Z,6.08
2019-05-06T02:21:43.836Z,5.72
2019-05-06T02:24:19.809Z,5.30
2019-05-06T02:26:48.213Z,5.37
2019-05-06T02:29:18.259Z,5.70
2019-05-06T02:32:00.794Z,5.40
2019-05-06T02:34:45.506Z,5.42
2019-05-06T02:37:16.893Z,5.20
2019-05-06T02:39:45.269Z,5.12
2019-05-06T02:42:14.103Z,4.80
2019-05-06T02:44:44.113Z,5.20
2019-05-06T02:47:22.865Z,4.65
2019-05-06T02:49:56.419Z,5.42
2019-05-06T02:52:24.884Z,5.03
2019-05-06T02:54:53.994Z,5.20
2019-05-06T02:57:24.173Z,5.55
2019-05-06T02:59:55.266Z,4.83
2019-05-06T03:02:37.958Z,5.10
2019-05-06T03:04:54.439Z,4.90
2019-05-06T03:07:23.446Z,5.05
2019-05-06T03:09:53.212Z,4.62
2019-05-06T03:12:22.867Z,4.75
2019-05-06T03:14:53.514Z,5.50
2019-05-06T03:17:23.792Z,5.00
2019-05-06T03:19:53.780Z,4.85
2019-05-06T03:22:34.520Z,5.87
2019-05-06T03:25:07.554Z,5.30
2019-05-06T03:27:35.918Z,4.72
2019-05-06T03:30:06.880Z,5.35
2019-05-06T03:32:48.229Z,4.40
2019-05-06T03:35:27.499Z,4.53
2019-05-06T03:37:38.968Z,4.72
2019-05-06T03:40:07.486Z,4.17
2019-05-06T03:42:35.857Z,4.37
2019-05-06T03:45:08.656Z,4.17
2019-05-06T03:47:38.664Z,4.85
2019-05-06T03:50:07.371Z,4.10
2019-05-06T03:52:35.781Z,4.80
2019-05-06T03:55:04.998Z,4.83
2019-05-06T03:57:36.189Z,5.17
2019-05-06T04:00:06.397Z,5.50
2019-05-06T04:02:39.406Z,5.55
2019-05-06T04:05:06.324Z,6.00
2019-05-06T04:07:34.702Z,6.35
2019-05-06T04:10:04.041Z,5.65
2019-05-06T04:12:34.604Z,7.55
2019-05-06T04:15:04.223Z,6.78
2019-05-06T04:17:53.465Z,6.47
2019-05-06T04:20:37.422Z,6.50
2019-05-06T04:23:14.527Z,6.78
2019-05-06T04:28:19.859Z,7.77
2019-05-06T04:30:49.378Z,7.83
2019-05-06T04:33:17.940Z,7.30
2019-05-06T04:35:46.384Z,7.30
2019-05-06T04:38:14.773Z,7.87
2019-05-06T04:40:44.152Z,7.20
2019-05-06T04:43:13.554Z,7.33
2019-05-06T04:45:43.842Z,7.42
2019-05-06T04:48:14.410Z,7.80
2019-05-06T04:50:44.998Z,6.67
2019-05-06T04:53:13.910Z,8.07
2019-05-06T04:55:43.569Z,7.65
2019-05-06T04:58:13.700Z,7.50
2019-05-06T05:00:44.602Z,7.75
2019-05-06T05:03:14.035Z,7.87
2019-05-06T05:05:44.909Z,7.10
2019-05-06T05:08:13.517Z,8.28
2019-05-06T05:11:00.286Z,8.78
2019-05-06T05:13:32.768Z,6.57
2019-05-06T05:16:05.249Z,8.23
2019-05-06T05:18:35.318Z,7.15
2019-05-06T05:21:04.491Z,7.37
2019-05-06T05:23:33.016Z,8.83
2019-05-06T05:26:04.968Z,8.10
2019-05-06T05:28:35.157Z,7.77
2019-05-06T05:31:04.475Z,7.97
2019-05-06T05:33:33.054Z,7.75
2019-05-06T05:36:02.073Z,8.63
2019-05-06T05:38:32.048Z,7.25
2019-05-06T05:41:03.074Z,7.33
2019-05-06T05:43:45.533Z,7.85
2019-05-06T05:46:14.034Z,7.03
2019-05-06T05:49:03.153Z,6.92
2019-05-06T05:51:32.783Z,5.92
2019-05-06T05:54:02.227Z,10.35
2019-05-06T05:56:32.897Z,10.18
2019-05-06T05:59:03.252Z,8.93
2019-05-06T06:01:32.657Z,6.83
2019-05-06T06:04:03.119Z,7.03
2019-05-06T06:06:33.253Z,7.03
2019-05-06T06:09:03.088Z,6.50
2019-05-06T06:11:33.417Z,8.63
2019-05-06T06:14:03.495Z,7.80
2019-05-06T06:16:45.571Z,6.15
2019-05-06T06:19:15.621Z,6.65
2019-05-06T06:21:54.819Z,7.12
2019-05-06T06:24:24.834Z,7.72
2019-05-06T06:26:53.205Z,7.20
2019-05-06T06:29:22.778Z,6.80
2019-05-06T06:31:53.070Z,6.37
2019-05-06T06:34:36.468Z,6.25
2019-05-06T06:37:22.686Z,6.25
2019-05-06T06:39:52.702Z,6.65
2019-05-06T06:42:22.218Z,7.37
2019-05-06T06:44:52.077Z,5.85
2019-05-06T06:47:22.511Z,5.85
2019-05-06T06:49:53.382Z,6.13
2019-05-06T06:52:23.141Z,6.90
2019-05-06T06:54:52.708Z,5.15
2019-05-06T06:57:22.977Z,5.92
2019-05-06T06:59:53.583Z,6.78
2019-05-06T07:02:32.228Z,5.80
2019-05-06T07:05:24.913Z,6.83
2019-05-06T07:07:47.313Z,5.62
2019-05-06T07:10:32.522Z,5.45
2019-05-06T07:13:03.022Z,5.40
2019-05-06T07:15:33.612Z,5.20
2019-05-06T07:18:02.526Z,5.85
2019-05-06T07:20:42.969Z,5.25
2019-05-06T07:23:23.894Z,5.72
2019-05-06T07:25:54.030Z,5.33
2019-05-06T07:28:24.365Z,5.00
2019-05-06T07:30:53.726Z,5.10
2019-05-06T07:33:22.960Z,5.67
2019-05-06T07:35:52.978Z,5.45
2019-05-06T07:38:23.207Z,6.23
2019-05-06T07:40:53.425Z,5.35
2019-05-06T07:43:38.409Z,5.28
2019-05-06T07:46:14.289Z,7.42
2019-05-06T07:48:42.972Z,5.70
2019-05-06T07:51:12.435Z,5.60
2019-05-06T07:53:42.712Z,14.20
2019-05-06T07:56:12.625Z,5.80
2019-05-06T07:58:43.330Z,5.67
2019-05-06T08:01:13.537Z,5.97
2019-05-06T08:03:42.892Z,5.80
2019-05-06T08:06:13.201Z,5.73
2019-05-06T08:08:43.252Z,5.70
2019-05-06T08:11:12.436Z,5.20
2019-05-06T08:13:43.259Z,5.33
2019-05-06T08:16:13.083Z,4.70
2019-05-06T08:18:42.590Z,5.43
2019-05-06T08:21:17.696Z,4.60
2019-05-06T08:23:47.803Z,3.90
2019-05-06T08:26:17.846Z,4.05
2019-05-06T08:28:46.321Z,5.00
2019-05-06T08:31:16.503Z,4.37
2019-05-06T08:33:44.888Z,4.83
2019-05-06T08:36:15.168Z,5.23
2019-05-06T08:38:56.380Z,5.30
2019-05-06T08:41:25.777Z,4.30
2019-05-06T08:43:54.724Z,4.10
2019-05-06T08:46:23.725Z,4.03
2019-05-06T08:48:52.500Z,3.98
2019-05-06T08:51:34.874Z,4.00
2019-05-06T08:54:22.818Z,4.30
2019-05-06T08:56:52.346Z,4.00
2019-05-06T08:59:21.110Z,4.23
2019-05-06T09:01:53.399Z,5.22
2019-05-06T09:04:22.772Z,4.75
2019-05-06T09:06:53.366Z,4.60
2019-05-06T09:09:22.395Z,4.60
2019-05-06T09:11:53.500Z,4.70
2019-05-06T09:14:23.748Z,4.53
2019-05-06T09:16:53.983Z,5.15
2019-05-06T09:19:24.434Z,5.00
2019-05-06T09:21:54.404Z,4.72
2019-05-06T09:24:23.360Z,4.42
2019-05-06T09:26:56.301Z,3.95
2019-05-06T09:29:32.600Z,5.00
2019-05-06T09:32:15.782Z,3.93
2019-05-06T09:34:52.669Z,3.77
2019-05-06T09:39:53.223Z,6.80
2019-05-06T09:42:23.075Z,5.92
2019-05-06T09:44:53.850Z,5.33
2019-05-06T09:47:23.127Z,7.50
2019-05-06T09:49:53.131Z,4.62
2019-05-06T09:52:23.147Z,4.25
2019-05-06T09:54:55.866Z,3.42
2019-05-06T09:57:26.074Z,3.83
2019-05-06T09:59:54.508Z,3.90
2019-05-06T10:02:23.225Z,2.90
2019-05-06T10:04:52.349Z,3.60
2019-05-06T10:07:22.605Z,3.40
2019-05-06T10:09:52.570Z,3.02
2019-05-06T10:12:21.504Z,3.02
2019-05-06T10:14:52.951Z,3.30
2019-05-06T10:17:20.571Z,2.80
2019-05-06T10:19:49.225Z,3.00
2019-05-06T10:22:17.588Z,2.52
2019-05-06T10:24:45.985Z,2.85
2019-05-06T10:27:14.522Z,2.50
2019-05-06T10:29:44.579Z,2.45
2019-05-06T10:32:14.589Z,2.30
2019-05-06T10:34:43.556Z,2.22
2019-05-06T10:37:25.918Z,2.57
2019-05-06T10:40:09.234Z,2.95
2019-05-06T10:42:55.672Z,2.42
2019-05-06T10:45:32.168Z,2.83
2019-05-06T10:48:02.194Z,2.72
2019-05-06T10:50:31.808Z,2.87
2019-05-06T10:53:07.502Z,2.92
2019-05-06T10:55:37.621Z,2.30
2019-05-06T10:58:06.060Z,2.12
2019-05-06T11:00:34.661Z,2.08
2019-05-06T11:03:14.975Z,1.65
2019-05-06T11:05:43.767Z,2.37
2019-05-06T11:08:12.320Z,2.15
2019-05-06T11:10:44.304Z,2.00
2019-05-06T11:13:12.826Z,2.12
2019-05-06T11:15:43.408Z,2.60
2019-05-06T11:18:13.477Z,1.90
2019-05-06T11:20:43.952Z,2.37
2019-05-06T11:23:14.261Z,2.35
2019-05-06T11:25:43.229Z,2.13
2019-05-06T11:28:29.994Z,3.80
2019-05-06T11:31:02.258Z,4.53
2019-05-06T11:33:32.923Z,2.95
2019-05-06T11:36:03.212Z,3.40
2019-05-06T11:38:32.256Z,3.20
2019-05-06T11:41:00.997Z,2.62
2019-05-06T11:43:29.369Z,2.97
2019-05-06T11:45:59.258Z,3.17
2019-05-06T11:48:27.658Z,3.40
2019-05-06T11:50:57.720Z,3.30
2019-05-06T11:53:26.128Z,3.10
2019-05-06T11:55:55.149Z,3.00
2019-05-06T11:58:43.584Z,5.65
2019-05-06T12:01:29.797Z,4.10
2019-05-06T12:03:58.172Z,3.15
2019-05-06T12:06:26.549Z,4.40
2019-05-06T12:08:55.121Z,3.27
2019-05-06T12:11:23.909Z,3.45
2019-05-06T12:13:53.336Z,3.52
2019-05-06T12:16:25.928Z,3.70
2019-05-06T12:18:52.917Z,3.30
2019-05-06T12:21:23.136Z,3.22
2019-05-06T12:23:54.070Z,3.17
2019-05-06T12:26:22.375Z,3.27
2019-05-06T12:28:53.166Z,3.08
2019-05-06T12:31:23.392Z,3.90
2019-05-06T12:33:53.233Z,2.70
2019-05-06T12:36:23.237Z,3.20
2019-05-06T12:39:16.047Z,3.02
2019-05-06T12:41:59.105Z,3.55
2019-05-06T12:44:27.496Z,2.55
2019-05-06T12:47:03.700Z,3.12
2019-05-06T12:49:32.652Z,3.10
2019-05-06T12:52:01.267Z,3.13
2019-05-06T12:54:29.678Z,2.92
2019-05-06T12:56:59.457Z,3.80
2019-05-06T12:59:27.908Z,2.67
2019-05-06T13:01:56.343Z,2.87
2019-05-06T13:04:44.379Z,3.15
2019-05-06T13:06:54.903Z,3.58
2019-05-06T13:09:23.394Z,2.33
2019-05-06T13:11:53.260Z,3.80
2019-05-06T13:14:22.541Z,3.20
2019-05-06T13:16:53.237Z,3.30
2019-05-06T13:19:22.886Z,2.80
2019-05-06T13:21:51.388Z,3.87
2019-05-06T13:24:19.878Z,3.60
2019-05-06T13:26:48.297Z,3.60
2019-05-06T13:29:18.365Z,3.85
2019-05-06T13:31:46.732Z,3.30
2019-05-06T13:34:17.126Z,3.35
2019-05-06T13:36:46.125Z,3.35
2019-05-06T13:39:15.404Z,3.27
2019-05-06T13:41:44.314Z,2.57
2019-05-06T13:44:14.647Z,3.12
2019-05-06T13:46:44.723Z,2.40
2019-05-06T13:49:23.480Z,2.60
2019-05-06T13:51:56.191Z,2.72
2019-05-06T13:54:26.097Z,2.83
2019-05-06T13:56:54.489Z,2.87
2019-05-06T13:59:23.019Z,2.92
2019-05-06T14:02:06.678Z,2.60
2019-05-06T14:04:32.720Z,3.08
2019-05-06T14:07:03.488Z,2.60
2019-05-06T14:09:37.258Z,2.77
2019-05-06T14:12:02.582Z,2.50
2019-05-06T14:14:32.218Z,2.60
2019-05-06T14:17:01.076Z,2.85
2019-05-06T14:19:29.408Z,3.77
2019-05-06T14:21:59.380Z,2.92
2019-05-06T14:24:27.911Z,2.50
2019-05-06T14:26:59.096Z,3.00
2019-05-06T14:29:32.927Z,2.27
2019-05-06T14:32:06.288Z,2.30
2019-05-06T14:34:34.655Z,2.50
2019-05-06T14:37:03.406Z,2.33
2019-05-06T14:39:53.876Z,2.77
2019-05-06T14:42:19.226Z,2.27
2019-05-06T14:44:47.665Z,2.67
2019-05-06T14:47:23.306Z,2.40
2019-05-06T14:49:53.384Z,2.58
2019-05-06T14:52:22.589Z,2.45
2019-05-06T14:54:53.361Z,2.33
2019-05-06T14:57:23.268Z,2.35
2019-05-06T14:59:55.212Z,2.15
2019-05-06T15:02:26.021Z,2.30
2019-05-06T15:04:53.772Z,2.60
2019-05-06T15:07:22.216Z,2.20
2019-05-06T15:10:02.564Z,3.00
2019-05-06T15:12:22.945Z,2.77
2019-05-06T15:14:52.751Z,1.95
2019-05-06T15:17:22.964Z,2.47
2019-05-06T15:19:52.737Z,2.85
2019-05-06T15:22:22.589Z,2.67
2019-05-06T15:24:53.978Z,2.62
2019-05-06T15:27:22.974Z,2.60
2019-05-06T15:29:56.161Z,2.30
2019-05-06T15:32:29.545Z,2.45
2019-05-06T15:35:02.661Z,2.47
2019-05-06T15:37:33.862Z,5.90
2019-05-06T15:40:03.005Z,4.23
2019-05-06T15:42:34.264Z,2.60
2019-05-06T15:45:03.770Z,2.77
2019-05-06T15:47:32.663Z,2.20
2019-05-06T15:50:02.536Z,2.30
2019-05-06T15:52:32.442Z,2.37
2019-05-06T15:55:03.257Z,2.27
2019-05-06T15:57:32.763Z,2.77
2019-05-06T16:00:02.530Z,2.07
2019-05-06T16:02:31.186Z,2.70
2019-05-06T16:05:11.217Z,3.08
2019-05-06T16:07:36.770Z,4.60
2019-05-06T16:10:02.483Z,3.80
2019-05-06T16:12:31.107Z,3.20
2019-05-06T16:14:59.666Z,3.60
2019-05-06T16:17:28.053Z,2.10
2019-05-06T16:19:56.452Z,2.17
2019-05-06T16:22:25.299Z,2.72
2019-05-06T16:24:55.340Z,2.30
2019-05-06T16:27:23.737Z,2.83
2019-05-06T16:29:53.665Z,2.00
2019-05-06T16:32:23.555Z,2.42
2019-05-06T16:34:52.572Z,2.37
2019-05-06T16:37:22.539Z,2.17
2019-05-06T16:39:54.180Z,2.08
2019-05-06T16:42:22.454Z,3.00
2019-05-06T16:44:52.681Z,2.55
2019-05-06T16:47:37.734Z,2.40
2019-05-06T16:50:17.601Z,1.95
2019-05-06T16:52:46.011Z,1.87
2019-05-06T16:55:17.169Z,2.20
2019-05-06T16:57:52.614Z,1.85
2019-05-06T17:00:23.624Z,2.12
2019-05-06T17:02:58.820Z,2.77
2019-05-06T17:05:34.742Z,2.20
2019-05-06T17:08:03.399Z,2.17
2019-05-06T17:10:32.327Z,5.03
2019-05-06T17:13:02.941Z,4.95
2019-05-06T17:15:32.578Z,3.12
2019-05-06T17:18:03.011Z,5.12
2019-05-06T17:20:32.554Z,4.53
2019-05-06T17:23:02.890Z,4.20
2019-05-06T17:25:33.443Z,2.77
2019-05-06T17:28:16.497Z,13.53
2019-05-06T17:30:51.717Z,2.83
2019-05-06T17:33:39.145Z,1.80
2019-05-06T17:36:09.341Z,2.02
2019-05-06T17:38:41.831Z,2.05
2019-05-06T17:41:09.693Z,2.12
2019-05-06T17:43:40.890Z,2.27
2019-05-06T17:46:08.502Z,2.38
2019-05-06T17:48:44.485Z,2.10
2019-05-06T17:51:14.695Z,2.15
2019-05-06T17:53:54.866Z,2.08
2019-05-06T17:56:24.968Z,2.50
2019-05-06T17:58:53.479Z,2.33
2019-05-06T18:01:33.355Z,2.58
2019-05-06T18:04:02.360Z,2.37
2019-05-06T18:06:33.005Z,2.30
2019-05-06T18:09:02.540Z,1.70
2019-05-06T18:11:33.205Z,3.15
2019-05-06T18:14:03.839Z,2.27
2019-05-06T18:16:33.838Z,4.28
2019-05-06T18:19:03.133Z,3.37
2019-05-06T18:21:32.100Z,3.35
2019-05-06T18:24:02.839Z,2.45
2019-05-06T18:26:33.415Z,2.42
2019-05-06T18:29:03.687Z,3.08
2019-05-06T18:31:33.433Z,3.05
2019-05-06T18:34:03.002Z,3.77
2019-05-06T18:36:35.404Z,4.72
2019-05-06T18:39:07.383Z,4.20
2019-05-06T18:41:36.392Z,3.87
2019-05-06T18:44:05.152Z,4.58
2019-05-06T18:46:33.591Z,5.50
2019-05-06T18:49:02.636Z,4.55
2019-05-06T18:51:31.350Z,4.67
2019-05-06T18:53:59.898Z,4.08
2019-05-06T18:56:28.458Z,3.80
2019-05-06T18:58:56.814Z,4.20
2019-05-06T19:01:25.193Z,3.60
2019-05-06T19:03:57.374Z,2.87
2019-05-06T19:06:25.889Z,2.27
2019-05-06T19:08:55.908Z,2.50
2019-05-06T19:11:24.952Z,2.37
2019-05-06T19:13:54.829Z,2.75
2019-05-06T19:16:23.231Z,2.60
2019-05-06T19:18:52.435Z,2.87
2019-05-06T19:21:24.320Z,2.70
2019-05-06T19:23:54.798Z,1.90
2019-05-06T19:26:23.391Z,2.80
2019-05-06T19:28:53.345Z,2.12
2019-05-06T19:31:22.910Z,2.67
2019-05-06T19:33:52.660Z,2.50
2019-05-06T19:36:23.322Z,2.50
2019-05-06T19:38:51.312Z,2.60
2019-05-06T19:41:19.661Z,2.15
2019-05-06T19:43:48.191Z,2.52
2019-05-06T19:46:16.565Z,3.15
2019-05-06T19:48:47.755Z,3.27
2019-05-06T19:51:16.138Z,2.62
2019-05-06T19:53:44.510Z,2.67
2019-05-06T19:56:13.071Z,3.37
2019-05-06T19:58:42.845Z,3.62
2019-05-06T20:01:11.444Z,2.45
2019-05-06T20:03:40.251Z,3.85
2019-05-06T20:06:22.610Z,3.83
2019-05-06T20:09:09.264Z,5.07
2019-05-06T20:11:42.584Z,3.57
2019-05-06T20:14:10.965Z,3.05
2019-05-06T20:16:39.399Z,3.00
2019-05-06T20:19:07.760Z,3.60
2019-05-06T20:21:36.264Z,3.33
2019-05-06T20:24:04.850Z,3.10
2019-05-06T20:26:33.264Z,2.30
2019-05-06T20:29:02.290Z,3.25
2019-05-06T20:31:32.133Z,3.40
2019-05-06T20:34:02.272Z,2.83
2019-05-06T20:36:33.190Z,5.58
2019-05-06T20:39:02.559Z,6.13
2019-05-06T20:41:32.867Z,5.80
2019-05-06T20:44:02.702Z,6.30
2019-05-06T20:46:35.779Z,7.23
2019-05-06T20:49:04.428Z,8.30
2019-05-06T20:51:32.979Z,8.55
2019-05-06T20:54:01.369Z,7.95
2019-05-06T20:56:29.841Z,9.05
2019-05-06T20:58:58.200Z,5.85
2019-05-06T21:01:26.611Z,6.37
2019-05-06T21:03:54.977Z,5.15
2019-05-06T21:06:32.206Z,5.40
2019-05-06T21:09:02.151Z,5.10
2019-05-06T21:11:32.565Z,5.45
2019-05-06T21:14:02.215Z,5.42
2019-05-06T21:16:32.048Z,4.30
2019-05-06T21:19:02.939Z,4.75
2019-05-06T21:21:31.920Z,4.50
2019-05-06T21:24:02.076Z,3.83
2019-05-06T21:26:32.885Z,4.15
2019-05-06T21:29:03.226Z,3.95
2019-05-06T21:31:32.585Z,4.20
2019-05-06T21:34:19.000Z,3.92
2019-05-06T21:36:48.933Z,3.90
2019-05-06T21:39:17.424Z,4.10
2019-05-06T21:41:45.967Z,5.22
2019-05-06T21:44:14.333Z,4.50
2019-05-06T21:46:43.076Z,4.87
2019-05-06T21:49:12.271Z,4.25
2019-05-06T21:51:42.653Z,5.97
2019-05-06T21:54:12.610Z,4.60
2019-05-06T21:56:42.449Z,5.45
2019-05-06T21:59:12.959Z,4.17
2019-05-06T22:01:42.946Z,4.08
2019-05-06T22:04:12.839Z,3.57
2019-05-06T22:06:45.249Z,3.72
2019-05-06T22:09:12.553Z,3.70
2019-05-06T22:11:42.373Z,4.70
2019-05-06T22:14:12.265Z,4.90
2019-05-06T22:16:43.693Z,5.10
2019-05-06T22:19:13.727Z,4.60
2019-05-06T22:22:00.101Z,4.10
2019-05-06T22:24:46.619Z,4.97
2019-05-06T22:27:16.138Z,4.40
2019-05-06T22:29:46.026Z,4.15
2019-05-06T22:32:14.931Z,4.97
2019-05-06T22:34:43.627Z,4.10
2019-05-06T22:37:12.562Z,3.80
2019-05-06T22:39:43.580Z,4.05
2019-05-06T22:42:11.748Z,5.05
2019-05-06T22:44:42.710Z,3.65
2019-05-06T22:47:12.208Z,3.93
2019-05-06T22:49:41.013Z,2.58
2019-05-06T22:52:09.376Z,4.00
2019-05-06T22:54:37.761Z,3.98
2019-05-06T22:57:06.142Z,3.80
2019-05-06T22:59:34.539Z,4.28
2019-05-06T23:02:22.619Z,4.10
2019-05-06T23:04:55.955Z,4.75
2019-05-06T23:07:24.422Z,4.20
2019-05-06T23:09:52.848Z,4.08
2019-05-06T23:12:23.137Z,4.15
2019-05-06T23:14:53.085Z,5.33
2019-05-06T23:17:21.406Z,4.42
2019-05-06T23:19:49.825Z,4.65
2019-05-06T23:22:18.198Z,4.73
2019-05-06T23:24:46.614Z,4.37
2019-05-06T23:27:15.002Z,4.78
2019-05-06T23:29:44.948Z,4.63
2019-05-06T23:32:13.978Z,3.87
2019-05-06T23:34:43.248Z,4.92
2019-05-06T23:37:15.079Z,4.37
2019-05-06T23:40:19.600Z,5.45
2019-05-06T23:43:23.976Z,5.03
2019-05-06T23:46:28.662Z,4.63
2019-05-06T23:49:33.117Z,5.47
2019-05-06T23:52:38.061Z,4.95
2019-05-06T23:55:44.093Z,5.20
2019-05-06T23:58:14.516Z,5.80
